createdAt,value
2022-12-31T00:02:30.471Z,15.98
2022-12-31T00:05:04.514Z,13.95
2022-12-31T00:10:11.153Z,9.95
2022-12-31T00:12:44.105Z,13.82
2022-12-31T00:15:17.209Z,18.40
2022-12-31T00:17:50.244Z,10.45
2022-12-31T00:20:23.355Z,11.60
2022-12-31T00:22:57.810Z,20.38
2022-12-31T00:25:30.662Z,18.02
2022-12-31T00:28:03.748Z,20.38
2022-12-31T00:30:37.357Z,15.48
2022-12-31T00:33:10.278Z,12.73
2022-12-31T00:35:43.453Z,17.30
2022-12-31T00:38:18.575Z,13.70
2022-12-31T00:40:51.665Z,14.13
2022-12-31T00:43:27.573Z,12.05
2022-12-31T00:46:01.198Z,14.90
2022-12-31T00:48:34.940Z,12.50
2022-12-31T00:51:10.813Z,13.00
2022-12-31T00:53:45.047Z,6.80
2022-12-31T00:56:20.553Z,11.88
2022-12-31T00:58:54.105Z,10.70
2022-12-31T01:01:29.857Z,12.63
2022-12-31T01:04:05.338Z,13.02
2022-12-31T01:06:39.365Z,9.30
2022-12-31T01:09:16.260Z,9.27
2022-12-31T01:11:51.912Z,10.65
2022-12-31T01:14:24.935Z,10.07
2022-12-31T01:19:30.931Z,12.15
2022-12-31T01:22:04.029Z,12.45
2022-12-31T01:24:38.407Z,7.03
2022-12-31T01:27:14.705Z,7.00
2022-12-31T01:29:48.071Z,9.00
2022-12-31T01:32:21.050Z,6.93
2022-12-31T01:34:54.590Z,10.20
2022-12-31T01:37:27.550Z,10.70
2022-12-31T01:42:35.124Z,9.95
2022-12-31T01:45:12.799Z,11.68
2022-12-31T01:47:48.968Z,10.57
2022-12-31T01:50:26.531Z,10.43
2022-12-31T01:53:02.576Z,11.35
2022-12-31T01:55:41.859Z,12.80
2022-12-31T01:58:19.421Z,12.32
2022-12-31T02:00:54.581Z,17.20
2022-12-31T02:03:29.899Z,11.82
2022-12-31T02:06:09.914Z,11.75
2022-12-31T02:08:43.212Z,12.23
2022-12-31T02:11:27.243Z,7.88
2022-12-31T02:14:04.266Z,13.55
2022-12-31T02:16:45.319Z,17.67
2022-12-31T02:19:42.591Z,11.00
2022-12-31T02:22:28.824Z,13.60
2022-12-31T02:25:38.764Z,10.10
2022-12-31T02:28:26.096Z,8.90
2022-12-31T02:31:05.653Z,15.90
2022-12-31T02:33:42.020Z,10.70
2022-12-31T02:36:20.223Z,10.45
2022-12-31T02:38:53.900Z,8.98
2022-12-31T02:41:44.461Z,11.02
2022-12-31T02:44:25.556Z,8.02
2022-12-31T02:47:14.610Z,6.97
2022-12-31T02:50:02.056Z,9.00
2022-12-31T02:52:42.579Z,10.32
2022-12-31T02:55:21.314Z,11.82
2022-12-31T02:58:03.627Z,10.68
2022-12-31T03:01:01.455Z,6.35
2022-12-31T03:03:37.069Z,10.13
2022-12-31T03:06:12.557Z,15.57
2022-12-31T03:08:59.283Z,6.53
2022-12-31T03:11:49.820Z,8.85
2022-12-31T03:14:22.601Z,7.20
2022-12-31T03:19:46.845Z,12.27
2022-12-31T03:22:28.760Z,9.82
2022-12-31T03:25:21.730Z,7.93
2022-12-31T03:27:56.806Z,6.70
2022-12-31T03:30:30.630Z,10.05
2022-12-31T03:33:05.729Z,12.85
2022-12-31T03:35:41.799Z,8.40
2022-12-31T03:38:15.532Z,8.52
2022-12-31T03:40:50.657Z,9.02
2022-12-31T03:43:24.298Z,7.35
2022-12-31T03:45:59.784Z,11.88
2022-12-31T03:48:33.460Z,6.55
2022-12-31T03:51:07.808Z,9.10
2022-12-31T03:53:40.721Z,7.07
2022-12-31T03:58:47.023Z,7.70
2022-12-31T04:01:20.257Z,8.98
2022-12-31T04:03:53.256Z,7.93
2022-12-31T04:09:00.913Z,9.43
2022-12-31T04:11:33.721Z,7.63
2022-12-31T04:14:06.898Z,8.80
2022-12-31T04:16:40.089Z,9.98
2022-12-31T04:19:14.050Z,6.13
2022-12-31T04:21:48.646Z,6.60
2022-12-31T04:24:21.798Z,6.07
2022-12-31T04:29:30.308Z,7.30
2022-12-31T04:32:03.173Z,6.13
2022-12-31T04:37:10.466Z,4.20
2022-12-31T04:39:43.300Z,6.55
2022-12-31T04:42:16.108Z,4.32
2022-12-31T04:44:48.924Z,4.88
2022-12-31T04:47:23.973Z,4.40
2022-12-31T04:49:57.153Z,4.40
2022-12-31T04:55:10.339Z,4.63
2022-12-31T04:57:43.274Z,4.43
2022-12-31T05:02:49.493Z,3.78
2022-12-31T05:05:22.957Z,5.20
2022-12-31T05:07:57.913Z,4.47
2022-12-31T05:10:31.200Z,3.45
2022-12-31T05:13:04.880Z,2.88
2022-12-31T05:15:37.958Z,3.53
2022-12-31T05:18:11.161Z,4.65
2022-12-31T05:20:44.487Z,2.28
2022-12-31T05:23:19.509Z,2.40
2022-12-31T05:25:52.630Z,4.85
2022-12-31T05:28:25.688Z,3.88
2022-12-31T05:33:31.275Z,1.70
2022-12-31T05:36:04.488Z,1.90
2022-12-31T05:38:39.643Z,1.88
2022-12-31T05:41:12.696Z,2.22
2022-12-31T05:46:20.933Z,1.40
2022-12-31T05:48:53.873Z,2.50
2022-12-31T05:54:01.354Z,1.92
2022-12-31T05:56:34.659Z,2.03
2022-12-31T05:59:07.796Z,3.92
2022-12-31T06:01:40.925Z,2.42
2022-12-31T06:04:13.764Z,1.70
2022-12-31T06:06:46.525Z,1.05
2022-12-31T06:09:20.994Z,8.65
2022-12-31T06:11:53.971Z,1.73
2022-12-31T06:14:26.768Z,2.03
2022-12-31T06:16:59.669Z,2.63
2022-12-31T06:22:05.362Z,3.63
2022-12-31T06:24:39.544Z,2.33
2022-12-31T06:27:12.452Z,1.77
2022-12-31T06:32:18.560Z,4.40
2022-12-31T06:37:24.570Z,2.63
2022-12-31T06:39:58.795Z,2.33
2022-12-31T06:42:32.195Z,2.13
2022-12-31T06:45:05.897Z,3.13
2022-12-31T06:47:38.857Z,2.85
2022-12-31T06:52:44.412Z,6.03
2022-12-31T06:57:52.567Z,2.70
2022-12-31T07:00:25.709Z,2.90
2022-12-31T07:03:25.758Z,4.45
2022-12-31T07:06:03.773Z,2.35
2022-12-31T07:08:46.438Z,5.18
2022-12-31T07:11:24.541Z,3.10
2022-12-31T07:14:08.774Z,6.00
2022-12-31T07:16:56.597Z,2.38
2022-12-31T07:19:39.601Z,2.95
2022-12-31T07:22:15.664Z,5.22
2022-12-31T07:24:49.137Z,3.88
2022-12-31T07:27:36.507Z,6.15
2022-12-31T07:30:15.043Z,3.55
2022-12-31T07:33:22.720Z,5.50
2022-12-31T07:36:04.997Z,4.88
2022-12-31T07:38:46.584Z,4.87
2022-12-31T07:41:29.341Z,6.22
2022-12-31T07:44:09.143Z,5.53
2022-12-31T07:46:51.715Z,7.03
2022-12-31T07:49:27.272Z,6.72
2022-12-31T07:52:00.871Z,5.70
2022-12-31T07:54:33.939Z,8.00
2022-12-31T07:59:59.825Z,14.73
2022-12-31T08:02:58.552Z,9.35
2022-12-31T08:05:40.543Z,10.57
2022-12-31T08:08:25.062Z,11.45
2022-12-31T08:11:09.478Z,10.85
2022-12-31T08:13:43.994Z,10.48
2022-12-31T08:16:20.256Z,8.25
2022-12-31T08:18:53.885Z,7.63
2022-12-31T08:21:39.428Z,13.75
2022-12-31T08:24:23.588Z,7.75
2022-12-31T08:27:10.118Z,11.73
2022-12-31T08:30:02.500Z,11.40
2022-12-31T08:32:53.028Z,6.80
2022-12-31T08:38:16.477Z,8.35
2022-12-31T08:40:56.062Z,14.35
2022-12-31T08:43:44.730Z,14.75
2022-12-31T08:46:24.389Z,14.02
2022-12-31T08:48:59.087Z,14.05
2022-12-31T08:51:34.042Z,11.63
2022-12-31T08:54:11.211Z,12.05
2022-12-31T08:56:50.893Z,11.45
2022-12-31T08:59:36.163Z,15.07
2022-12-31T09:02:47.769Z,12.75
2022-12-31T09:05:26.600Z,14.63
2022-12-31T09:08:07.782Z,17.27
2022-12-31T09:10:47.226Z,18.05
2022-12-31T09:13:30.243Z,12.50
2022-12-31T09:16:10.286Z,13.80
2022-12-31T09:18:43.956Z,13.10
2022-12-31T09:21:18.557Z,19.90
2022-12-31T09:23:51.949Z,12.70
2022-12-31T09:26:38.690Z,14.52
2022-12-31T09:29:26.508Z,10.70
2022-12-31T09:32:06.780Z,17.08
2022-12-31T09:34:47.807Z,12.73
2022-12-31T09:37:37.624Z,8.55
2022-12-31T09:40:39.991Z,15.52
2022-12-31T09:43:53.419Z,7.85
2022-12-31T09:46:58.450Z,13.50
2022-12-31T09:50:13.845Z,4.13
2022-12-31T09:53:10.264Z,11.40
2022-12-31T09:55:52.534Z,8.43
2022-12-31T09:58:43.207Z,10.40
2022-12-31T10:01:39.280Z,10.18
2022-12-31T10:04:40.862Z,11.32
2022-12-31T10:07:30.005Z,10.68
2022-12-31T10:10:10.502Z,8.00
2022-12-31T10:13:03.182Z,8.70
2022-12-31T10:16:30.122Z,10.05
2022-12-31T10:19:36.088Z,11.00
2022-12-31T10:22:24.198Z,7.38
2022-12-31T10:25:19.319Z,10.50
2022-12-31T10:27:56.165Z,8.05
2022-12-31T10:30:34.740Z,7.65
2022-12-31T10:33:16.720Z,9.70
2022-12-31T10:36:00.320Z,10.45
2022-12-31T10:38:52.268Z,10.65
2022-12-31T10:41:53.651Z,8.07
2022-12-31T10:44:49.044Z,42.50
2022-12-31T10:47:48.522Z,21.33
2022-12-31T10:50:42.521Z,14.25
2022-12-31T10:53:42.030Z,13.90
2022-12-31T10:56:40.260Z,9.82
2022-12-31T10:59:36.638Z,10.10
2022-12-31T11:02:32.997Z,6.32
2022-12-31T11:05:38.408Z,5.93
2022-12-31T11:08:34.164Z,6.72
2022-12-31T11:11:24.070Z,10.75
2022-12-31T11:14:27.410Z,8.43
2022-12-31T11:17:26.635Z,7.07
2022-12-31T11:20:11.911Z,5.20
2022-12-31T11:23:02.323Z,5.65
2022-12-31T11:25:48.855Z,13.45
2022-12-31T11:28:40.086Z,8.15
2022-12-31T11:31:29.346Z,5.97
2022-12-31T11:34:16.125Z,13.65
2022-12-31T11:37:14.721Z,7.35
2022-12-31T11:39:56.227Z,8.10
2022-12-31T11:42:42.627Z,6.28
2022-12-31T11:45:24.833Z,9.43
2022-12-31T11:51:11.495Z,8.07
2022-12-31T11:54:05.043Z,9.63
2022-12-31T11:59:19.329Z,10.15
2022-12-31T12:01:57.224Z,10.05
2022-12-31T12:04:31.987Z,11.55
2022-12-31T12:07:09.787Z,7.28
2022-12-31T12:09:44.831Z,9.95
2022-12-31T12:12:17.764Z,13.10
2022-12-31T12:14:54.393Z,10.38
2022-12-31T12:17:32.340Z,10.75
2022-12-31T12:20:17.421Z,6.88
2022-12-31T12:22:51.993Z,7.93
2022-12-31T12:25:26.984Z,13.00
2022-12-31T12:27:59.825Z,9.80
2022-12-31T12:30:41.283Z,9.50
2022-12-31T12:33:19.121Z,14.10
2022-12-31T12:35:53.564Z,13.00
2022-12-31T12:38:26.387Z,9.38
2022-12-31T12:43:35.040Z,13.07
2022-12-31T12:46:19.219Z,8.95
2022-12-31T12:48:56.673Z,13.15
2022-12-31T12:51:44.223Z,11.10
2022-12-31T12:54:31.265Z,9.85
2022-12-31T12:57:10.441Z,13.65
2022-12-31T12:59:57.167Z,12.80
2022-12-31T13:03:02.628Z,7.68
2022-12-31T13:05:47.930Z,5.82
2022-12-31T13:08:34.454Z,7.00
2022-12-31T13:11:26.250Z,9.98
2022-12-31T13:14:04.915Z,8.75
2022-12-31T13:16:42.834Z,11.68
2022-12-31T13:19:23.672Z,16.15
2022-12-31T13:22:03.238Z,54.22
2022-12-31T13:24:52.068Z,67.60
2022-12-31T13:27:29.651Z,45.95
2022-12-31T13:30:07.259Z,70.25
2022-12-31T13:32:44.383Z,179.77
2022-12-31T13:35:31.033Z,283.05
2022-12-31T13:38:18.438Z,180.52
2022-12-31T13:41:11.335Z,116.70
2022-12-31T13:44:04.686Z,129.85
2022-12-31T13:47:46.556Z,91.25
2022-12-31T13:50:25.933Z,79.57
2022-12-31T13:53:05.319Z,136.65
2022-12-31T13:55:42.694Z,98.85
2022-12-31T13:58:24.085Z,122.82
2022-12-31T14:01:06.401Z,122.72
2022-12-31T14:03:46.961Z,116.63
2022-12-31T14:06:30.060Z,85.95
2022-12-31T14:09:03.479Z,60.47
2022-12-31T14:12:04.696Z,51.83
2022-12-31T14:14:47.508Z,48.75
2022-12-31T14:17:29.539Z,36.70
2022-12-31T14:20:13.154Z,31.85
2022-12-31T14:22:52.826Z,26.42
2022-12-31T14:25:32.081Z,26.17
2022-12-31T14:28:08.323Z,22.67
2022-12-31T14:30:45.725Z,20.58
2022-12-31T14:33:32.433Z,28.50
2022-12-31T14:36:15.960Z,24.77
2022-12-31T14:39:07.420Z,89.35
2022-12-31T14:41:52.673Z,40.80
2022-12-31T14:44:39.322Z,766.08
2022-12-31T14:47:28.212Z,670.47
2022-12-31T14:50:08.100Z,439.65
2022-12-31T14:52:53.288Z,344.70
2022-12-31T14:55:29.632Z,221.50
2022-12-31T15:01:00.046Z,140.27
2022-12-31T15:03:45.499Z,104.90
2022-12-31T15:06:50.526Z,73.10
2022-12-31T15:09:57.947Z,56.45
2022-12-31T15:13:04.483Z,58.33
2022-12-31T15:15:50.347Z,69.13
2022-12-31T15:18:36.194Z,62.88
2022-12-31T15:21:26.578Z,69.22
2022-12-31T15:23:59.651Z,54.03
2022-12-31T15:26:34.742Z,53.72
2022-12-31T15:29:20.679Z,57.35
2022-12-31T15:31:57.460Z,54.88
2022-12-31T15:34:34.189Z,44.80
2022-12-31T15:37:33.801Z,43.38
2022-12-31T15:40:19.634Z,48.53
2022-12-31T15:42:59.204Z,50.47
2022-12-31T15:45:35.257Z,46.33
2022-12-31T15:48:15.216Z,91.68
2022-12-31T15:50:52.427Z,70.45
2022-12-31T15:53:31.014Z,78.57
2022-12-31T15:56:04.746Z,71.90
2022-12-31T15:58:38.602Z,56.72
2022-12-31T16:01:16.138Z,107.85
2022-12-31T16:03:55.938Z,77.28
2022-12-31T16:06:32.466Z,61.47
2022-12-31T16:09:09.547Z,52.03
2022-12-31T16:11:44.462Z,43.85
2022-12-31T16:14:23.315Z,36.30
2022-12-31T16:16:58.619Z,30.83
2022-12-31T16:19:34.747Z,33.80
2022-12-31T16:22:16.651Z,303.88
2022-12-31T16:25:28.942Z,130.18
2022-12-31T16:27:51.002Z,95.25
2022-12-31T16:30:28.695Z,76.32
2022-12-31T16:33:04.204Z,117.93
2022-12-31T16:35:38.477Z,212.90
2022-12-31T16:38:15.743Z,176.13
2022-12-31T16:41:19.051Z,139.98
2022-12-31T16:43:53.150Z,108.68
2022-12-31T16:46:30.489Z,89.90
2022-12-31T16:49:14.606Z,73.55
2022-12-31T16:51:49.810Z,70.82
2022-12-31T16:54:31.017Z,61.40
2022-12-31T16:57:10.951Z,63.85
2022-12-31T16:59:46.985Z,47.20
2022-12-31T17:02:32.457Z,42.55
2022-12-31T17:05:06.624Z,43.50
2022-12-31T17:07:43.198Z,43.53
2022-12-31T17:10:21.580Z,44.25
2022-12-31T17:13:28.111Z,42.60
2022-12-31T17:15:53.114Z,43.55
2022-12-31T17:18:30.327Z,32.70
2022-12-31T17:21:08.921Z,39.30
2022-12-31T17:23:43.031Z,31.92
2022-12-31T17:26:25.040Z,33.45
2022-12-31T17:29:01.623Z,24.73
2022-12-31T17:31:39.824Z,23.17
2022-12-31T17:34:30.460Z,21.90
2022-12-31T17:37:18.325Z,20.27
2022-12-31T17:39:52.508Z,35.45
2022-12-31T17:42:34.152Z,47.78
2022-12-31T17:45:19.103Z,33.42
2022-12-31T17:47:55.714Z,40.63
2022-12-31T17:50:29.341Z,61.38
2022-12-31T17:53:12.288Z,47.50
2022-12-31T17:55:48.207Z,33.10
2022-12-31T17:58:29.618Z,31.13
2022-12-31T18:01:08.120Z,32.25
2022-12-31T18:03:41.152Z,28.60
2022-12-31T18:06:16.906Z,32.42
2022-12-31T18:08:50.052Z,25.85
2022-12-31T18:11:25.247Z,35.30
2022-12-31T18:13:58.176Z,40.40
2022-12-31T18:19:23.621Z,41.90
2022-12-31T18:22:06.763Z,30.33
2022-12-31T18:24:39.962Z,26.05
2022-12-31T18:29:49.752Z,26.63
2022-12-31T18:32:25.895Z,40.70
2022-12-31T18:34:59.271Z,32.10
2022-12-31T18:37:34.531Z,36.03
2022-12-31T18:40:08.528Z,34.45
2022-12-31T18:42:42.105Z,26.83
2022-12-31T18:45:17.903Z,26.80
2022-12-31T18:47:52.209Z,29.33
2022-12-31T18:50:24.985Z,33.55
2022-12-31T18:55:38.820Z,32.83
2022-12-31T18:58:12.199Z,31.50
2022-12-31T19:00:46.229Z,34.20
2022-12-31T19:03:22.700Z,33.70
2022-12-31T19:05:55.617Z,25.25
2022-12-31T19:08:28.525Z,39.05
2022-12-31T19:16:08.847Z,58.08
2022-12-31T19:18:43.678Z,56.63
2022-12-31T19:21:18.578Z,54.95
2022-12-31T19:23:53.058Z,45.85
2022-12-31T19:26:43.536Z,41.47
2022-12-31T19:29:21.369Z,35.03
2022-12-31T19:32:01.275Z,34.33
2022-12-31T19:34:35.972Z,34.55
2022-12-31T19:37:13.377Z,37.97
2022-12-31T19:39:46.750Z,35.83
2022-12-31T19:42:21.531Z,39.92
2022-12-31T19:44:57.310Z,38.33
2022-12-31T19:47:30.403Z,39.88
2022-12-31T19:50:05.604Z,30.95
2022-12-31T19:52:38.803Z,31.02
2022-12-31T19:55:15.155Z,51.97
2022-12-31T19:57:49.024Z,44.33
2022-12-31T20:00:22.940Z,67.72
2022-12-31T20:02:56.390Z,73.65
2022-12-31T20:05:31.385Z,64.82
2022-12-31T20:08:14.494Z,56.88
2022-12-31T20:10:47.840Z,49.92
2022-12-31T20:13:21.346Z,46.35
2022-12-31T20:15:54.737Z,252.70
2022-12-31T20:18:27.998Z,138.98
2022-12-31T20:21:04.902Z,123.55
2022-12-31T20:23:37.877Z,137.15
2022-12-31T20:28:46.769Z,109.20
2022-12-31T20:31:22.053Z,78.80
2022-12-31T20:33:56.121Z,82.57
2022-12-31T20:36:30.583Z,61.58
2022-12-31T20:39:03.747Z,54.53
2022-12-31T20:41:36.926Z,59.42
2022-12-31T20:44:10.168Z,45.00
2022-12-31T20:46:45.151Z,47.65
2022-12-31T20:49:31.344Z,45.28
2022-12-31T20:52:15.385Z,48.08
2022-12-31T20:54:48.451Z,57.22
2022-12-31T20:59:54.205Z,100.95
2022-12-31T21:02:40.822Z,78.00
2022-12-31T21:05:14.406Z,66.22
2022-12-31T21:07:48.963Z,60.28
2022-12-31T21:10:21.928Z,56.15
2022-12-31T21:15:26.699Z,42.17
2022-12-31T21:20:33.075Z,41.75
2022-12-31T21:23:07.477Z,33.72
2022-12-31T21:25:40.418Z,48.85
2022-12-31T21:30:46.644Z,79.13
2022-12-31T21:35:54.016Z,114.30
2022-12-31T21:38:30.423Z,91.45
2022-12-31T21:41:03.617Z,77.45
2022-12-31T21:43:36.506Z,73.80
2022-12-31T21:48:42.221Z,60.80
2022-12-31T21:51:17.212Z,84.78
2022-12-31T21:53:52.052Z,190.32
2022-12-31T21:56:24.111Z,117.68
2022-12-31T21:59:16.103Z,121.13
2022-12-31T22:02:06.691Z,80.22
2022-12-31T22:07:32.598Z,61.67
2022-12-31T22:10:07.867Z,53.88
2022-12-31T22:12:40.899Z,52.75
2022-12-31T22:15:16.252Z,45.75
2022-12-31T22:17:49.497Z,43.85
2022-12-31T22:20:27.526Z,49.47
2022-12-31T22:23:01.045Z,42.60
2022-12-31T22:28:37.557Z,44.22
2022-12-31T22:31:02.140Z,40.28
2022-12-31T22:33:34.991Z,37.40
2022-12-31T22:36:11.737Z,33.88
2022-12-31T22:38:45.423Z,34.97
2022-12-31T22:41:22.040Z,29.65
2022-12-31T22:44:02.989Z,28.25
2022-12-31T22:46:36.888Z,35.13
2022-12-31T22:49:11.875Z,38.15
2022-12-31T22:51:57.135Z,33.97
2022-12-31T22:54:31.802Z,118.05
2022-12-31T22:57:06.047Z,112.57
2022-12-31T22:59:39.159Z,82.50
2022-12-31T23:04:46.107Z,246.43
2022-12-31T23:07:19.087Z,219.88
2022-12-31T23:10:09.495Z,174.50
2022-12-31T23:12:44.224Z,160.57
2022-12-31T23:15:34.877Z,163.40
2022-12-31T23:18:25.734Z,141.48
2022-12-31T23:21:15.972Z,135.57
2022-12-31T23:23:48.849Z,136.88
2022-12-31T23:26:21.592Z,125.70
2022-12-31T23:28:55.751Z,128.02
2022-12-31T23:31:28.892Z,131.60
2022-12-31T23:34:01.700Z,130.68
2022-12-31T23:36:34.708Z,118.43
2022-12-31T23:39:07.787Z,105.40
2022-12-31T23:44:15.224Z,99.27
2022-12-31T23:46:48.315Z,85.95
2022-12-31T23:49:21.609Z,75.25
2022-12-31T23:54:27.140Z,64.30
2022-12-31T23:56:59.993Z,76.85
2022-12-31T23:59:34.270Z,75.32
